createdAt,value
2018-11-26T00:02:07.700Z,5.40
2018-11-26T00:04:35.796Z,5.40
2018-11-26T00:07:03.981Z,5.40
2018-11-26T00:09:32.057Z,5.40
2018-11-26T00:12:00.368Z,5.40
2018-11-26T00:14:28.445Z,5.40
2018-11-26T00:16:56.543Z,5.50
2018-11-26T00:19:24.729Z,5.50
2018-11-26T00:21:56.091Z,5.60
2018-11-26T00:24:24.164Z,5.60
2018-11-26T00:26:52.279Z,5.60
2018-11-26T00:29:20.536Z,5.60
2018-11-26T00:31:48.663Z,5.60
2018-11-26T00:34:16.752Z,5.70
2018-11-26T00:36:44.872Z,5.60
2018-11-26T00:39:13.104Z,5.60
2018-11-26T00:41:41.283Z,5.60
2018-11-26T00:44:09.417Z,5.60
2018-11-26T00:46:37.528Z,5.70
2018-11-26T00:49:05.596Z,5.70
2018-11-26T00:51:34.112Z,5.70
2018-11-26T00:54:02.355Z,5.80
2018-11-26T00:56:30.493Z,5.80
2018-11-26T00:58:58.592Z,5.80
2018-11-26T01:01:26.733Z,5.80
2018-11-26T01:03:54.837Z,5.80
2018-11-26T01:06:22.943Z,5.80
2018-11-26T01:08:51.024Z,5.80
2018-11-26T01:11:19.442Z,5.80
2018-11-26T01:13:47.523Z,5.80
2018-11-26T01:16:15.901Z,5.80
2018-11-26T01:18:44.007Z,5.80
2018-11-26T01:21:12.180Z,5.80
2018-11-26T01:23:40.478Z,5.90
2018-11-26T01:26:08.553Z,5.90
2018-11-26T01:28:36.677Z,5.90
2018-11-26T01:31:04.795Z,5.90
2018-11-26T01:33:32.913Z,5.80
2018-11-26T01:36:01.033Z,5.90
2018-11-26T01:38:29.145Z,5.90
2018-11-26T01:40:57.286Z,6.00
2018-11-26T01:43:25.628Z,6.00
2018-11-26T01:45:53.759Z,6.00
2018-11-26T01:48:21.856Z,6.00
2018-11-26T01:50:49.981Z,6.00
2018-11-26T01:53:18.118Z,6.00
2018-11-26T01:55:46.214Z,6.00
2018-11-26T01:58:14.322Z,5.90
2018-11-26T02:00:42.392Z,5.90
2018-11-26T02:03:10.495Z,5.90
2018-11-26T02:05:38.601Z,5.90
2018-11-26T02:08:06.990Z,6.00
2018-11-26T02:10:35.130Z,5.90
2018-11-26T02:13:03.208Z,5.90
2018-11-26T02:15:36.452Z,5.90
2018-11-26T02:18:04.560Z,6.00
2018-11-26T02:20:32.647Z,6.00
2018-11-26T02:23:00.784Z,6.00
2018-11-26T02:25:28.876Z,5.90
2018-11-26T02:27:57.006Z,5.90
2018-11-26T02:30:25.108Z,6.00
2018-11-26T02:32:54.205Z,5.90
2018-11-26T02:35:22.337Z,6.00
2018-11-26T02:37:51.425Z,6.00
2018-11-26T02:40:28.515Z,5.90
2018-11-26T02:42:56.618Z,5.90
2018-11-26T02:45:24.719Z,6.00
2018-11-26T02:47:52.864Z,5.90
2018-11-26T02:50:20.986Z,5.90
2018-11-26T02:52:49.063Z,5.90
2018-11-26T02:55:17.170Z,5.90
2018-11-26T02:57:45.288Z,5.90
2018-11-26T03:00:13.695Z,5.90
2018-11-26T03:02:41.784Z,5.90
2018-11-26T03:05:11.052Z,5.90
2018-11-26T03:07:39.397Z,5.90
2018-11-26T03:10:10.132Z,5.90
2018-11-26T03:12:39.044Z,5.90
2018-11-26T03:15:09.755Z,5.90
2018-11-26T03:17:38.403Z,5.90
2018-11-26T03:20:07.860Z,5.90
2018-11-26T03:22:35.974Z,5.90
2018-11-26T03:25:04.313Z,5.90
2018-11-26T03:27:32.504Z,5.80
2018-11-26T03:30:00.584Z,5.80
2018-11-26T03:32:28.710Z,5.80
2018-11-26T03:34:56.784Z,5.80
2018-11-26T03:37:24.901Z,5.80
2018-11-26T03:39:53.013Z,5.80
2018-11-26T03:42:21.108Z,5.80
2018-11-26T03:44:49.225Z,5.80
2018-11-26T03:47:17.441Z,5.80
2018-11-26T03:49:45.665Z,5.80
2018-11-26T03:52:13.789Z,5.80
2018-11-26T03:54:41.915Z,5.80
2018-11-26T03:57:10.099Z,5.80
2018-11-26T03:59:38.259Z,5.80
2018-11-26T04:02:06.417Z,5.80
2018-11-26T04:04:34.567Z,5.80
2018-11-26T04:07:02.941Z,5.80
2018-11-26T04:09:31.152Z,5.80
2018-11-26T04:11:59.393Z,5.80
2018-11-26T04:14:27.576Z,5.80
2018-11-26T04:16:55.764Z,5.90
2018-11-26T04:19:23.957Z,5.80
2018-11-26T04:21:52.331Z,5.80
2018-11-26T04:24:23.504Z,5.80
2018-11-26T04:26:52.053Z,5.80
2018-11-26T04:29:20.708Z,5.90
2018-11-26T04:31:49.430Z,5.80
2018-11-26T04:34:17.816Z,5.80
2018-11-26T04:36:45.987Z,5.80
2018-11-26T04:39:14.149Z,5.80
2018-11-26T04:41:42.316Z,5.70
2018-11-26T04:44:10.484Z,5.70
2018-11-26T04:46:39.497Z,5.70
2018-11-26T04:49:08.219Z,5.80
2018-11-26T04:51:36.388Z,5.80
2018-11-26T04:54:04.549Z,5.70
2018-11-26T04:56:32.702Z,5.60
2018-11-26T04:59:01.144Z,5.60
2018-11-26T05:01:29.665Z,5.60
2018-11-26T05:03:58.232Z,5.50
2018-11-26T05:06:26.560Z,5.50
2018-11-26T05:08:55.305Z,5.50
2018-11-26T05:11:23.489Z,5.40
2018-11-26T05:13:51.929Z,5.40
2018-11-26T05:16:20.302Z,5.40
2018-11-26T05:18:48.448Z,5.30
2018-11-26T05:21:16.706Z,5.30
2018-11-26T05:23:44.865Z,5.40
2018-11-26T05:26:13.078Z,5.40
2018-11-26T05:28:41.690Z,5.40
2018-11-26T05:31:10.090Z,5.20
2018-11-26T05:33:38.332Z,5.10
2018-11-26T05:36:06.486Z,5.10
2018-11-26T05:38:34.652Z,5.00
2018-11-26T05:41:02.825Z,5.00
2018-11-26T05:43:31.233Z,5.00
2018-11-26T05:45:59.365Z,5.00
2018-11-26T05:48:27.582Z,4.90
2018-11-26T05:50:55.733Z,4.90
2018-11-26T05:53:23.885Z,4.80
2018-11-26T05:55:52.006Z,4.80
2018-11-26T05:58:20.088Z,4.80
2018-11-26T06:00:48.241Z,4.80
2018-11-26T06:03:16.332Z,4.80
2018-11-26T06:05:44.445Z,4.80
2018-11-26T06:08:12.552Z,4.80
2018-11-26T06:10:41.554Z,4.80
2018-11-26T06:13:09.693Z,4.70
2018-11-26T06:15:37.800Z,4.70
2018-11-26T06:18:05.944Z,4.70
2018-11-26T06:20:34.060Z,4.70
2018-11-26T06:23:02.183Z,4.60
2018-11-26T06:25:30.307Z,4.70
2018-11-26T06:27:58.414Z,4.70
2018-11-26T06:30:26.518Z,4.60
2018-11-26T06:32:54.669Z,4.70
2018-11-26T06:35:23.169Z,4.70
2018-11-26T06:37:51.320Z,4.70
2018-11-26T06:40:20.738Z,4.60
2018-11-26T06:42:48.854Z,4.70
2018-11-26T06:45:18.063Z,4.70
2018-11-26T06:47:46.196Z,4.70
2018-11-26T06:50:15.582Z,4.60
2018-11-26T06:52:43.859Z,4.80
2018-11-26T06:55:16.969Z,4.70
2018-11-26T06:57:45.059Z,4.70
2018-11-26T07:00:15.248Z,4.70
2018-11-26T07:02:43.404Z,4.80
2018-11-26T07:05:13.780Z,4.80
2018-11-26T07:07:41.893Z,4.80
2018-11-26T07:10:10.947Z,4.70
2018-11-26T07:12:39.220Z,4.70
2018-11-26T07:15:09.746Z,4.70
2018-11-26T07:17:37.889Z,4.70
2018-11-26T07:20:08.848Z,4.60
2018-11-26T07:22:37.060Z,4.60
2018-11-26T07:25:07.347Z,4.60
2018-11-26T07:27:35.486Z,4.70
2018-11-26T07:30:05.006Z,4.70
2018-11-26T07:32:33.772Z,4.60
2018-11-26T07:35:02.581Z,4.60
2018-11-26T07:37:30.695Z,4.60
2018-11-26T07:39:59.124Z,4.60
2018-11-26T07:42:27.736Z,4.60
2018-11-26T07:44:56.047Z,4.60
2018-11-26T07:47:24.176Z,4.50
2018-11-26T07:49:52.259Z,4.50
2018-11-26T07:52:20.420Z,4.50
2018-11-26T07:54:48.566Z,4.60
2018-11-26T07:57:16.744Z,4.60
2018-11-26T07:59:44.849Z,4.60
2018-11-26T08:02:13.013Z,4.60
2018-11-26T08:04:41.413Z,4.60
2018-11-26T08:07:09.516Z,4.60
2018-11-26T08:09:37.651Z,4.60
2018-11-26T08:12:05.805Z,4.70
2018-11-26T08:14:33.916Z,4.70
2018-11-26T08:17:02.239Z,4.60
2018-11-26T08:19:30.378Z,4.60
2018-11-26T08:21:58.508Z,4.50
2018-11-26T08:24:26.629Z,4.50
2018-11-26T08:26:54.781Z,4.50
2018-11-26T08:29:22.871Z,4.40
2018-11-26T08:31:50.984Z,4.50
2018-11-26T08:34:19.157Z,4.40
2018-11-26T08:36:47.258Z,4.40
2018-11-26T08:39:18.634Z,4.40
2018-11-26T08:41:53.233Z,4.40
2018-11-26T08:44:27.564Z,4.50
2018-11-26T08:47:00.571Z,4.50
2018-11-26T08:49:28.895Z,4.40
2018-11-26T08:51:57.025Z,4.30
2018-11-26T08:54:25.144Z,4.40
2018-11-26T08:56:53.234Z,4.40
2018-11-26T08:59:21.355Z,4.40
2018-11-26T09:01:51.000Z,4.50
2018-11-26T09:04:19.987Z,4.40
2018-11-26T09:06:48.509Z,4.50
2018-11-26T09:09:16.661Z,4.60
2018-11-26T09:11:44.775Z,4.60
2018-11-26T09:14:12.890Z,4.60
2018-11-26T09:16:41.239Z,4.60
2018-11-26T09:19:09.379Z,4.60
2018-11-26T09:21:37.484Z,4.60
2018-11-26T09:24:05.624Z,4.60
2018-11-26T09:26:33.744Z,4.60
2018-11-26T09:29:01.898Z,4.50
2018-11-26T09:31:30.006Z,4.50
2018-11-26T09:33:58.161Z,4.40
2018-11-26T09:36:26.233Z,4.50
2018-11-26T09:38:54.362Z,4.50
2018-11-26T09:41:22.446Z,4.40
2018-11-26T09:43:50.537Z,4.40
2018-11-26T09:46:18.661Z,4.40
2018-11-26T09:48:46.808Z,4.50
2018-11-26T09:51:14.912Z,4.50
2018-11-26T09:53:43.075Z,4.40
2018-11-26T09:56:11.358Z,4.40
2018-11-26T09:58:39.913Z,4.40
2018-11-26T10:01:08.053Z,4.30
2018-11-26T10:03:36.189Z,4.20
2018-11-26T10:06:04.786Z,4.10
2018-11-26T10:08:32.924Z,4.10
2018-11-26T10:11:01.066Z,4.20
2018-11-26T10:13:29.154Z,4.20
2018-11-26T10:15:57.269Z,4.20
2018-11-26T10:18:25.360Z,4.10
2018-11-26T10:20:53.737Z,4.20
2018-11-26T10:23:21.856Z,4.20
2018-11-26T10:25:50.006Z,4.20
2018-11-26T10:28:18.160Z,4.20
2018-11-26T10:30:46.264Z,4.20
2018-11-26T10:33:15.034Z,4.20
2018-11-26T10:35:42.819Z,4.10
2018-11-26T10:38:11.015Z,4.10
2018-11-26T10:40:39.557Z,4.10
2018-11-26T10:43:11.750Z,4.10
2018-11-26T10:45:36.569Z,4.10
2018-11-26T10:48:05.956Z,4.10
2018-11-26T10:50:34.458Z,4.10
2018-11-26T10:53:02.554Z,4.20
2018-11-26T10:55:32.190Z,4.20
2018-11-26T10:58:01.777Z,4.10
2018-11-26T11:00:35.300Z,4.20
2018-11-26T11:03:03.436Z,4.30
2018-11-26T11:05:31.840Z,4.20
2018-11-26T11:08:00.038Z,4.20
2018-11-26T11:10:30.484Z,4.30
2018-11-26T11:12:58.728Z,4.20
2018-11-26T11:15:27.056Z,4.30
2018-11-26T11:17:55.260Z,4.30
2018-11-26T11:20:25.304Z,4.30
2018-11-26T11:22:53.435Z,4.40
2018-11-26T11:25:22.217Z,4.40
2018-11-26T11:27:51.112Z,4.40
2018-11-26T11:30:27.993Z,4.50
2018-11-26T11:32:56.181Z,4.50
2018-11-26T11:35:24.442Z,4.50
2018-11-26T11:37:53.319Z,4.60
2018-11-26T11:40:23.582Z,4.60
2018-11-26T11:42:51.727Z,4.60
2018-11-26T11:45:20.186Z,4.70
2018-11-26T11:47:48.305Z,4.60
2018-11-26T11:50:17.798Z,5.10
2018-11-26T11:52:46.224Z,5.00
2018-11-26T11:55:16.520Z,5.00
2018-11-26T11:57:44.725Z,4.90
2018-11-26T12:00:18.673Z,5.10
2018-11-26T12:02:46.798Z,5.00
2018-11-26T12:05:15.425Z,5.00
2018-11-26T12:07:43.633Z,5.10
2018-11-26T12:10:12.244Z,5.00
2018-11-26T12:12:40.556Z,5.00
2018-11-26T12:15:10.417Z,4.90
2018-11-26T12:17:38.587Z,4.80
2018-11-26T12:20:09.366Z,4.80
2018-11-26T12:22:37.795Z,4.70
2018-11-26T12:25:07.654Z,4.70
2018-11-26T12:27:35.790Z,4.80
2018-11-26T12:30:05.149Z,4.80
2018-11-26T12:32:33.349Z,4.90
2018-11-26T12:35:01.571Z,4.80
2018-11-26T12:37:29.702Z,4.70
2018-11-26T12:39:57.898Z,4.80
2018-11-26T12:42:26.398Z,4.70
2018-11-26T12:44:54.612Z,4.70
2018-11-26T12:47:22.868Z,4.70
2018-11-26T12:49:51.035Z,4.70
2018-11-26T12:52:19.205Z,4.70
2018-11-26T12:54:47.341Z,4.60
2018-11-26T12:57:15.910Z,4.60
2018-11-26T12:59:44.204Z,4.70
2018-11-26T13:02:12.499Z,4.70
2018-11-26T13:04:40.786Z,4.80
2018-11-26T13:07:08.962Z,4.80
2018-11-26T13:09:37.246Z,4.80
2018-11-26T13:12:05.726Z,4.80
2018-11-26T13:14:33.897Z,4.90
2018-11-26T13:17:02.147Z,4.80
2018-11-26T13:19:30.723Z,4.70
2018-11-26T13:21:59.393Z,4.80
2018-11-26T13:24:28.054Z,4.90
2018-11-26T13:26:56.753Z,4.90
2018-11-26T13:29:24.977Z,4.90
2018-11-26T13:31:53.398Z,5.00
2018-11-26T13:34:21.538Z,5.10
2018-11-26T13:36:49.778Z,4.90
2018-11-26T13:39:18.325Z,4.80
2018-11-26T13:41:46.882Z,4.80
2018-11-26T13:44:15.059Z,4.80
2018-11-26T13:46:43.350Z,4.80
2018-11-26T13:49:11.851Z,4.80
2018-11-26T13:51:40.071Z,4.70
2018-11-26T13:54:08.694Z,4.70
2018-11-26T13:56:36.969Z,4.70
2018-11-26T13:59:06.007Z,4.70
2018-11-26T14:01:34.363Z,4.70
2018-11-26T14:04:02.635Z,4.70
2018-11-26T14:06:30.943Z,4.60
2018-11-26T14:08:59.478Z,4.50
2018-11-26T14:11:28.250Z,4.40
2018-11-26T14:13:56.794Z,4.30
2018-11-26T14:16:25.039Z,4.30
2018-11-26T14:18:53.681Z,4.30
2018-11-26T14:21:21.575Z,4.20
2018-11-26T14:23:49.808Z,4.30
2018-11-26T14:26:18.402Z,4.30
2018-11-26T14:28:46.738Z,4.30
2018-11-26T14:31:15.145Z,4.30
2018-11-26T14:33:43.388Z,4.20
2018-11-26T14:36:11.664Z,4.20
2018-11-26T14:38:40.099Z,4.20
2018-11-26T14:41:08.592Z,4.10
2018-11-26T14:43:37.104Z,4.10
2018-11-26T14:46:05.803Z,4.10
2018-11-26T14:48:34.125Z,4.10
2018-11-26T14:51:02.371Z,4.00
2018-11-26T14:53:30.739Z,4.00
2018-11-26T14:55:59.183Z,4.00
2018-11-26T14:58:27.671Z,3.90
2018-11-26T15:00:56.022Z,3.90
2018-11-26T15:03:24.374Z,3.80
2018-11-26T15:05:52.731Z,3.90
2018-11-26T15:08:20.931Z,3.80
2018-11-26T15:10:49.137Z,3.90
2018-11-26T15:13:17.327Z,3.90
2018-11-26T15:15:45.526Z,3.90
2018-11-26T15:18:13.658Z,3.80
2018-11-26T15:20:42.009Z,3.80
2018-11-26T15:23:10.253Z,3.80
2018-11-26T15:25:38.431Z,3.80
2018-11-26T15:28:14.048Z,3.80
2018-11-26T15:30:42.923Z,3.80
2018-11-26T15:33:11.132Z,3.80
2018-11-26T15:35:42.723Z,3.80
2018-11-26T15:38:10.987Z,3.70
2018-11-26T15:40:39.655Z,3.70
2018-11-26T15:43:07.776Z,3.70
2018-11-26T15:45:36.456Z,3.60
2018-11-26T15:48:08.646Z,3.60
2018-11-26T15:50:36.892Z,3.70
2018-11-26T15:53:06.364Z,3.70
2018-11-26T15:55:34.714Z,3.70
2018-11-26T15:58:03.013Z,3.70
2018-11-26T16:00:31.337Z,3.70
2018-11-26T16:03:00.094Z,3.70
2018-11-26T16:05:29.749Z,3.70
2018-11-26T16:08:00.628Z,3.60
2018-11-26T16:10:28.875Z,3.60
2018-11-26T16:12:58.895Z,3.60
2018-11-26T16:15:29.713Z,3.90
2018-11-26T16:17:59.905Z,3.90
2018-11-26T16:20:28.501Z,4.00
2018-11-26T16:22:58.240Z,4.10
2018-11-26T16:25:28.190Z,3.90
2018-11-26T16:27:56.926Z,3.80
2018-11-26T16:30:25.887Z,3.70
2018-11-26T16:32:55.990Z,3.60
2018-11-26T16:35:28.847Z,3.60
2018-11-26T16:37:57.477Z,3.50
2018-11-26T16:40:28.299Z,3.50
2018-11-26T16:42:56.730Z,3.60
2018-11-26T16:45:26.930Z,3.50
2018-11-26T16:47:56.354Z,3.60
2018-11-26T16:50:26.638Z,3.70
2018-11-26T16:52:54.956Z,3.50
2018-11-26T16:55:23.283Z,3.50
2018-11-26T16:57:51.570Z,3.60
2018-11-26T17:00:21.696Z,3.60
2018-11-26T17:02:51.431Z,3.60
2018-11-26T17:05:25.572Z,3.50
2018-11-26T17:07:53.893Z,3.50
2018-11-26T17:10:23.608Z,3.50
2018-11-26T17:12:52.651Z,3.60
2018-11-26T17:15:20.952Z,3.50
2018-11-26T17:17:49.144Z,3.60
2018-11-26T17:20:17.907Z,3.60
2018-11-26T17:22:46.560Z,3.60
2018-11-26T17:25:15.692Z,3.60
2018-11-26T17:27:44.579Z,3.60
2018-11-26T17:30:15.988Z,3.60
2018-11-26T17:32:44.907Z,3.60
2018-11-26T17:35:14.638Z,3.60
2018-11-26T17:37:43.456Z,3.60
2018-11-26T17:40:17.838Z,3.50
2018-11-26T17:42:46.136Z,3.50
2018-11-26T17:45:14.893Z,3.60
2018-11-26T17:47:46.231Z,3.50
2018-11-26T17:50:16.931Z,3.50
2018-11-26T17:52:45.209Z,3.50
2018-11-26T17:55:13.473Z,3.50
2018-11-26T17:57:41.952Z,3.40
2018-11-26T18:00:44.091Z,3.50
2018-11-26T18:03:12.832Z,3.40
2018-11-26T18:05:41.696Z,3.50
2018-11-26T18:08:16.554Z,3.50
2018-11-26T18:10:47.157Z,3.50
2018-11-26T18:13:15.395Z,3.50
2018-11-26T18:15:43.746Z,3.50
2018-11-26T18:18:13.790Z,3.50
2018-11-26T18:20:42.843Z,3.50
2018-11-26T18:23:11.980Z,3.50
2018-11-26T18:25:41.742Z,3.50
2018-11-26T18:28:13.065Z,3.50
2018-11-26T18:30:43.546Z,3.60
2018-11-26T18:33:12.228Z,3.50
2018-11-26T18:35:41.578Z,3.50
2018-11-26T18:38:10.597Z,3.40
2018-11-26T18:40:40.394Z,3.40
2018-11-26T18:43:09.163Z,3.50
2018-11-26T18:45:38.558Z,3.40
2018-11-26T18:48:07.502Z,3.40
2018-11-26T18:50:35.903Z,3.40
2018-11-26T18:53:04.194Z,3.40
2018-11-26T18:55:32.458Z,3.40
2018-11-26T18:58:00.792Z,3.40
2018-11-26T19:00:31.624Z,3.30
2018-11-26T19:02:59.947Z,3.30
2018-11-26T19:05:28.358Z,3.30
2018-11-26T19:07:56.653Z,3.30
2018-11-26T19:10:28.003Z,3.30
2018-11-26T19:13:01.814Z,3.30
2018-11-26T19:15:32.189Z,3.30
2018-11-26T19:18:08.597Z,3.30
2018-11-26T19:20:36.826Z,3.30
2018-11-26T19:23:05.502Z,3.30
2018-11-26T19:25:33.988Z,3.30
2018-11-26T19:28:04.465Z,3.30
2018-11-26T19:30:32.750Z,3.30
2018-11-26T19:33:01.991Z,3.20
2018-11-26T19:35:30.453Z,3.30
2018-11-26T19:37:58.667Z,3.30
2018-11-26T19:40:27.331Z,3.40
2018-11-26T19:42:55.555Z,3.30
2018-11-26T19:45:23.844Z,3.20
2018-11-26T19:47:52.088Z,3.30
2018-11-26T19:50:20.665Z,3.20
2018-11-26T19:52:51.239Z,3.20
2018-11-26T19:55:23.965Z,3.10
2018-11-26T19:57:53.033Z,3.10
2018-11-26T20:00:30.765Z,3.10
2018-11-26T20:03:33.218Z,3.10
2018-11-26T20:06:08.970Z,3.00
2018-11-26T20:08:37.305Z,3.00
2018-11-26T20:11:06.391Z,3.00
2018-11-26T20:13:35.678Z,3.00
2018-11-26T20:16:21.651Z,3.10
2018-11-26T20:18:50.235Z,3.10
2018-11-26T20:21:18.628Z,3.00
2018-11-26T20:23:46.896Z,3.00
2018-11-26T20:26:15.149Z,3.00
2018-11-26T20:28:43.366Z,2.90
2018-11-26T20:31:11.779Z,2.90
2018-11-26T20:33:40.140Z,2.90
2018-11-26T20:36:10.324Z,2.90
2018-11-26T20:38:38.648Z,2.90
2018-11-26T20:41:08.106Z,2.90
2018-11-26T20:43:36.368Z,2.80
2018-11-26T20:46:04.658Z,2.80
2018-11-26T20:48:32.957Z,2.70
2018-11-26T20:51:01.444Z,2.70
2018-11-26T20:53:30.461Z,2.70
2018-11-26T20:55:59.615Z,2.70
2018-11-26T20:58:27.816Z,2.70
2018-11-26T21:00:56.168Z,2.60
2018-11-26T21:03:24.409Z,2.60
2018-11-26T21:05:53.177Z,2.60
2018-11-26T21:08:21.583Z,2.60
2018-11-26T21:10:49.924Z,2.50
2018-11-26T21:13:18.154Z,2.70
2018-11-26T21:15:46.516Z,2.50
2018-11-26T21:18:14.695Z,2.40
2018-11-26T21:20:45.488Z,2.50
2018-11-26T21:23:21.144Z,2.50
2018-11-26T21:25:49.608Z,2.50
2018-11-26T21:28:17.911Z,2.50
2018-11-26T21:30:51.617Z,2.50
2018-11-26T21:33:14.531Z,2.50
2018-11-26T21:35:42.837Z,2.40
2018-11-26T21:38:11.824Z,2.40
2018-11-26T21:40:40.812Z,2.50
2018-11-26T21:43:10.115Z,2.50
2018-11-26T21:45:43.419Z,2.50
2018-11-26T21:48:11.710Z,2.40
2018-11-26T21:50:41.313Z,2.40
2018-11-26T21:53:09.724Z,2.40
2018-11-26T21:55:37.987Z,2.30
2018-11-26T21:58:06.898Z,2.30
2018-11-26T22:00:35.454Z,2.30
2018-11-26T22:03:11.463Z,2.30
2018-11-26T22:05:41.090Z,2.30
2018-11-26T22:08:10.020Z,2.40
2018-11-26T22:10:39.332Z,2.30
2018-11-26T22:13:11.732Z,2.30
2018-11-26T22:15:40.294Z,2.30
2018-11-26T22:18:08.837Z,2.30
2018-11-26T22:20:37.295Z,2.30
2018-11-26T22:23:06.344Z,2.30
2018-11-26T22:25:34.591Z,2.40
2018-11-26T22:28:04.048Z,2.30
2018-11-26T22:30:33.150Z,2.20
2018-11-26T22:33:01.279Z,2.20
2018-11-26T22:35:29.469Z,2.30
2018-11-26T22:37:57.643Z,2.20
2018-11-26T22:40:26.699Z,2.20
2018-11-26T22:42:55.092Z,2.20
2018-11-26T22:45:25.050Z,2.20
2018-11-26T22:48:00.591Z,2.30
2018-11-26T22:50:28.806Z,2.30
2018-11-26T22:52:57.185Z,2.20
2018-11-26T22:55:25.480Z,2.20
2018-11-26T22:57:53.765Z,2.10
2018-11-26T23:00:30.155Z,2.10
2018-11-26T23:03:00.928Z,2.00
2018-11-26T23:05:29.290Z,2.00
2018-11-26T23:07:57.402Z,2.00
2018-11-26T23:10:25.691Z,2.00
2018-11-26T23:12:53.961Z,2.00
2018-11-26T23:15:22.257Z,2.00
2018-11-26T23:17:50.440Z,2.00
2018-11-26T23:20:19.680Z,1.90
2018-11-26T23:22:47.899Z,1.90
2018-11-26T23:25:18.018Z,1.90
2018-11-26T23:27:46.297Z,1.90
2018-11-26T23:30:17.482Z,2.00
2018-11-26T23:32:46.903Z,2.10
2018-11-26T23:35:15.032Z,2.00
2018-11-26T23:37:43.287Z,2.00
2018-11-26T23:40:12.396Z,2.00
2018-11-26T23:42:40.971Z,1.90
2018-11-26T23:45:10.635Z,1.90
2018-11-26T23:47:38.863Z,1.90
2018-11-26T23:50:08.710Z,1.90
2018-11-26T23:52:37.515Z,2.00
2018-11-26T23:55:07.186Z,2.00
2018-11-26T23:57:35.369Z,2.00
